Time;durP1;ratioP1;P1;durP2;ratioP2;P2;SDS_P1;SDS_P2;PMS_P1;PMS_P2;Temp;Humidity;BMP_temperature;BMP_pressure;BME280_temperature;BME280_humidity;BME280_pressure;Samples;Min_cycle;Max_cycle;Signal;HPM_P1;HPM_P2
2021/06/08 00:00:32;;;;;;;31.27;24.83;;;14.20;91.30;;;;;;4926552;29;20055;-95
2021/06/08 00:03:03;;;;;;;30.55;25.15;;;14.20;91.30;;;;;;4939961;29;20083;-95
2021/06/08 00:05:29;;;;;;;28.00;24.40;;;14.10;91.30;;;;;;4941823;29;20452;-94
2021/06/08 00:07:56;;;;;;;28.42;22.42;;;14.10;91.40;;;;;;4941484;29;20043;-94
2021/06/08 00:10:27;;;;;;;27.75;24.13;;;14.00;91.50;;;;;;4940395;29;20051;-94
2021/06/08 00:12:55;;;;;;;27.80;24.10;;;14.10;91.30;;;;;;4957691;28;20054;-94
2021/06/08 00:15:21;;;;;;;29.88;23.83;;;14.00;91.50;;;;;;4958831;28;20043;-93
2021/06/08 00:17:49;;;;;;;28.05;24.02;;;14.10;91.30;;;;;;4958884;28;20065;-93
2021/06/08 00:20:15;;;;;;;31.63;25.48;;;14.10;91.30;;;;;;4975784;28;20047;-95
2021/06/08 00:22:45;;;;;;;30.13;25.33;;;14.10;91.60;;;;;;4959079;28;20071;-95
2021/06/08 00:25:14;;;;;;;30.58;26.05;;;14.10;91.30;;;;;;4975862;28;20042;-94
2021/06/08 00:27:40;;;;;;;32.58;26.65;;;14.10;91.40;;;;;;4958886;28;20047;-94
2021/06/08 00:30:07;;;;;;;30.58;25.70;;;14.20;91.30;;;;;;4958546;28;20043;-95
2021/06/08 00:32:33;;;;;;;34.45;26.90;;;14.10;91.60;;;;;;4927022;29;20055;-95
2021/06/08 00:34:59;;;;;;;32.58;26.40;;;14.10;91.30;;;;;;4938783;29;20051;-95
2021/06/08 00:37:25;;;;;;;35.50;27.80;;;14.10;91.40;;;;;;4956608;28;20484;-94
2021/06/08 00:39:55;;;;;;;38.20;29.23;;;14.10;91.40;;;;;;4939691;29;20055;-96
2021/06/08 00:42:29;;;;;;;37.92;28.55;;;14.00;91.50;;;;;;4939970;29;20043;-96
2021/06/08 00:44:56;;;;;;;34.13;27.45;;;13.90;91.90;;;;;;4922989;29;20062;-93
2021/06/08 00:47:22;;;;;;;72.90;28.98;;;13.80;91.80;;;;;;4956121;28;20047;-94
2021/06/08 00:50:14;;;;;;;40.05;29.27;;;13.70;92.10;;;;;;4941693;29;20074;-94
2021/06/08 00:52:43;;;;;;;39.80;29.63;;;13.70;92.10;;;;;;4939833;29;20062;-93
2021/06/08 00:55:14;;;;;;;34.60;28.02;;;13.60;92.30;;;;;;4956097;29;20055;-95
2021/06/08 00:57:43;;;;;;;35.33;25.75;;;13.70;92.20;;;;;;4959433;28;21806;-95
2021/06/08 01:00:13;;;;;;;34.72;24.83;;;13.80;92.10;;;;;;4961119;28;20042;-96
2021/06/08 01:02:42;;;;;;;33.33;26.50;;;13.70;92.00;;;;;;4958382;28;20075;-94
2021/06/08 01:05:09;;;;;;;32.40;25.27;;;13.70;92.20;;;;;;4966088;28;20078;-94
2021/06/08 01:07:39;;;;;;;33.88;25.95;;;13.70;92.10;;;;;;4952189;28;20069;-95
2021/06/08 01:10:08;;;;;;;31.55;25.23;;;13.70;92.10;;;;;;4940663;28;20058;-94
2021/06/08 01:12:37;;;;;;;47.33;25.27;;;13.80;92.10;;;;;;4942790;28;20061;-94
2021/06/08 01:15:05;;;;;;;45.10;23.92;;;13.70;92.10;;;;;;4958201;28;20380;-95
2021/06/08 01:17:34;;;;;;;32.03;23.48;;;13.70;92.20;;;;;;4959171;28;20061;-95
2021/06/08 01:20:04;;;;;;;31.20;23.00;;;13.60;92.30;;;;;;4976174;28;20043;-94
2021/06/08 01:22:30;;;;;;;40.17;23.83;;;13.50;92.60;;;;;;4974877;28;20050;-94
2021/06/08 01:24:57;;;;;;;43.58;23.83;;;13.50;92.50;;;;;;4957789;28;20479;-95
2021/06/08 01:27:29;;;;;;;63.72;24.65;;;13.40;92.80;;;;;;4959608;28;20050;-95
2021/06/08 01:30:15;;;;;;;41.67;23.70;;;13.30;92.50;;;;;;4960643;28;20042;-93
2021/06/08 01:32:47;;;;;;;30.60;21.98;;;13.40;92.60;;;;;;4959577;28;20038;-95
2021/06/08 01:35:16;;;;;;;31.00;23.00;;;13.50;92.60;;;;;;4958535;28;20054;-95
2021/06/08 01:37:48;;;;;;;50.83;23.38;;;13.50;92.60;;;;;;4961853;28;20479;-96
2021/06/08 01:40:19;;;;;;;38.38;23.45;;;13.60;92.50;;;;;;4960513;28;20471;-94
2021/06/08 01:42:54;;;;;;;33.40;23.02;;;13.50;92.40;;;;;;4957724;28;20077;-96
2021/06/08 01:45:28;;;;;;;35.72;22.98;;;13.50;92.60;;;;;;4958725;28;20039;-94
2021/06/08 01:47:57;;;;;;;38.38;24.80;;;13.50;92.80;;;;;;4922967;29;20410;-96
2021/06/08 01:50:28;;;;;;;30.63;22.92;;;13.50;92.60;;;;;;4940523;29;20098;-94
2021/06/08 01:53:03;;;;;;;39.15;22.88;;;13.60;92.60;;;;;;4938411;29;20039;-94
2021/06/08 01:55:41;;;;;;;32.22;21.70;;;13.60;92.70;;;;;;4951835;28;20122;-95
2021/06/08 01:58:17;;;;;;;99.13;24.65;;;13.50;92.60;;;;;;4932041;29;20559;-95
2021/06/08 02:00:58;;;;;;;32.78;23.70;;;13.50;92.60;;;;;;4938487;29;20138;-94
2021/06/08 02:03:32;;;;;;;56.65;24.67;;;13.50;92.80;;;;;;4919295;29;20044;-94
2021/06/08 02:06:30;;;;;;;38.58;26.95;;;13.40;92.90;;;;;;4921404;29;20174;-95
2021/06/08 02:09:02;;;;;;;51.38;26.23;;;13.50;93.00;;;;;;4934243;29;20051;-94
2021/06/08 02:11:40;;;;;;;31.60;23.55;;;13.30;93.30;;;;;;4935058;29;20047;-95
2021/06/08 02:14:24;;;;;;;37.20;24.10;;;13.40;93.00;;;;;;4934208;29;20043;-95
2021/06/08 02:17:00;;;;;;;35.83;23.73;;;13.40;93.10;;;;;;4935184;29;20091;-96
2021/06/08 02:19:30;;;;;;;35.90;23.30;;;13.40;93.20;;;;;;4920096;29;20499;-95
2021/06/08 02:22:04;;;;;;;29.40;20.92;;;13.40;93.00;;;;;;4940753;29;20134;-94
2021/06/08 02:24:41;;;;;;;62.10;20.67;;;13.40;93.10;;;;;;4946305;29;20044;-95
2021/06/08 02:27:13;;;;;;;45.72;19.60;;;13.30;92.90;;;;;;4938732;29;20480;-95
2021/06/08 02:29:46;;;;;;;31.67;20.90;;;13.30;92.90;;;;;;4940456;29;20047;-95
2021/06/08 02:32:16;;;;;;;29.50;18.73;;;13.30;92.80;;;;;;4939114;29;20087;-96
2021/06/08 02:34:43;;;;;;;28.65;19.10;;;13.30;92.90;;;;;;4938642;29;20044;-93
2021/06/08 02:37:32;;;;;;;42.05;19.70;;;13.30;92.70;;;;;;4926630;29;20082;-94
2021/06/08 02:39:59;;;;;;;24.98;18.50;;;13.40;92.70;;;;;;4937920;29;20499;-95
2021/06/08 02:42:25;;;;;;;58.80;18.80;;;13.30;92.70;;;;;;4939391;29;20095;-96
2021/06/08 02:44:58;;;;;;;26.00;17.77;;;13.30;92.70;;;;;;4923159;29;20063;-93
2021/06/08 02:47:31;;;;;;;31.33;19.40;;;13.20;92.70;;;;;;4938479;29;20047;-95
2021/06/08 02:50:01;;;;;;;28.23;19.63;;;13.20;92.80;;;;;;4939582;29;20054;-94
2021/06/08 02:52:29;;;;;;;38.08;19.35;;;13.10;93.00;;;;;;4940168;29;20051;-94
2021/06/08 02:54:58;;;;;;;24.95;18.35;;;13.10;93.00;;;;;;4939952;29;20039;-96
2021/06/08 02:57:26;;;;;;;26.10;18.52;;;13.10;93.00;;;;;;4938986;29;20395;-95
2021/06/08 03:00:02;;;;;;;26.25;17.80;;;13.20;93.00;;;;;;4937834;29;20047;-95
2021/06/08 03:02:31;;;;;;;21.52;16.55;;;13.10;93.00;;;;;;4950418;28;20059;-96
2021/06/08 03:05:07;;;;;;;28.67;18.10;;;13.20;92.90;;;;;;4941566;29;20149;-94
2021/06/08 03:07:38;;;;;;;23.30;17.95;;;13.20;92.80;;;;;;4957073;29;20259;-96
2021/06/08 03:10:34;;;;;;;21.58;16.00;;;13.20;92.80;;;;;;4957870;28;20059;-96
2021/06/08 03:13:07;;;;;;;30.50;17.67;;;13.20;92.80;;;;;;4938864;29;20133;-94
2021/06/08 03:15:39;;;;;;;39.83;17.38;;;13.10;92.70;;;;;;4942261;29;20149;-96
2021/06/08 03:18:16;;;;;;;22.40;17.25;;;13.10;92.70;;;;;;4943013;29;20055;-96
2021/06/08 03:20:52;;;;;;;23.73;17.27;;;13.20;92.70;;;;;;4959004;29;20039;-95
2021/06/08 03:23:21;;;;;;;26.80;18.25;;;13.20;92.60;;;;;;4973688;28;20035;-95
2021/06/08 03:25:50;;;;;;;31.85;19.63;;;13.10;92.50;;;;;;4935071;29;20492;-95
2021/06/08 03:28:19;;;;;;;43.47;17.73;;;13.10;92.80;;;;;;4921990;29;20052;-95
2021/06/08 03:30:48;;;;;;;23.90;16.70;;;13.20;92.70;;;;;;4938066;29;20107;-95
2021/06/08 03:33:14;;;;;;;26.65;16.58;;;13.10;92.70;;;;;;4936832;29;20103;-95
2021/06/08 03:35:41;;;;;;;19.70;14.75;;;13.20;92.70;;;;;;4939333;29;20054;-96
2021/06/08 03:38:14;;;;;;;19.92;14.02;;;13.20;92.70;;;;;;4927658;29;20082;-95
2021/06/08 03:40:43;;;;;;;37.83;14.90;;;13.10;92.60;;;;;;4922798;29;20058;-95
2021/06/08 03:43:12;;;;;;;22.20;13.90;;;13.10;92.50;;;;;;4938208;29;20130;-95
2021/06/08 03:45:41;;;;;;;19.02;14.40;;;13.10;92.60;;;;;;4937280;29;20087;-94
2021/06/08 03:48:16;;;;;;;19.17;13.90;;;13.10;92.70;;;;;;4938592;29;20075;-94
2021/06/08 03:50:48;;;;;;;21.15;14.02;;;13.10;92.70;;;;;;4937883;29;20067;-96
2021/06/08 03:53:24;;;;;;;25.15;14.05;;;13.10;92.70;;;;;;4943851;29;20051;-96
2021/06/08 03:55:51;;;;;;;18.05;13.60;;;13.10;92.70;;;;;;4937251;29;20043;-95
2021/06/08 03:58:20;;;;;;;19.95;13.55;;;13.10;92.60;;;;;;4942833;29;20095;-95
2021/06/08 04:00:47;;;;;;;24.30;14.20;;;13.10;92.80;;;;;;4922034;29;20147;-94
2021/06/08 04:03:15;;;;;;;34.47;15.35;;;13.10;92.70;;;;;;4936271;29;20060;-95
2021/06/08 04:05:41;;;;;;;20.75;13.15;;;13.20;92.70;;;;;;4937648;29;20043;-93
2021/06/08 04:08:21;;;;;;;43.50;12.57;;;13.10;92.80;;;;;;4940272;29;20071;-96
2021/06/08 04:10:49;;;;;;;17.05;11.82;;;13.10;92.90;;;;;;4922865;29;20055;-95
2021/06/08 04:13:21;;;;;;;21.25;13.40;;;13.10;92.90;;;;;;4920376;29;20480;-94
2021/06/08 04:15:50;;;;;;;22.75;13.13;;;13.10;92.90;;;;;;4936860;29;20403;-94
2021/06/08 04:18:20;;;;;;;22.85;12.60;;;13.00;92.90;;;;;;4937544;29;20040;-95
2021/06/08 04:20:53;;;;;;;37.67;13.82;;;13.00;93.20;;;;;;4937122;29;20047;-92
2021/06/08 04:23:25;;;;;;;17.80;13.93;;;13.00;93.20;;;;;;4938365;29;20121;-93
2021/06/08 04:25:50;;;;;;;18.25;13.57;;;12.90;93.40;;;;;;4938390;29;20044;-94
2021/06/08 04:28:26;;;;;;;24.40;14.80;;;13.00;93.50;;;;;;4920919;29;20051;-94
2021/06/08 04:30:58;;;;;;;37.35;14.63;;;13.00;93.60;;;;;;4939204;29;20511;-93
2021/06/08 04:33:27;;;;;;;22.17;14.77;;;13.00;93.50;;;;;;4937187;29;20039;-91
2021/06/08 04:35:53;;;;;;;22.48;13.50;;;13.00;93.50;;;;;;4938659;29;20059;-93
2021/06/08 04:38:20;;;;;;;17.83;12.85;;;12.90;93.60;;;;;;4936205;29;20044;-90
2021/06/08 04:40:47;;;;;;;15.77;12.77;;;12.90;93.70;;;;;;4936433;29;20044;-91
2021/06/08 04:43:14;;;;;;;16.25;12.90;;;12.80;93.70;;;;;;4933887;29;20051;-90
2021/06/08 04:45:42;;;;;;;21.83;12.82;;;12.80;93.80;;;;;;4947378;29;20050;-91
2021/06/08 04:48:22;;;;;;;18.83;13.23;;;12.80;94.00;;;;;;4953965;29;20040;-91
2021/06/08 04:50:52;;;;;;;26.63;14.25;;;12.90;93.90;;;;;;4939030;29;20059;-91
2021/06/08 04:53:20;;;;;;;37.15;14.05;;;13.00;94.00;;;;;;4954438;28;20380;-92
2021/06/08 04:55:53;;;;;;;20.73;13.88;;;13.00;93.80;;;;;;4955935;28;20047;-94
2021/06/08 04:58:35;;;;;;;42.90;13.85;;;13.00;93.70;;;;;;4947468;29;20602;-93
2021/06/08 05:01:28;;;;;;;24.80;14.32;;;13.00;93.80;;;;;;4952627;29;20047;-96
2021/06/08 05:04:07;;;;;;;26.23;13.10;;;13.00;93.80;;;;;;4969943;28;20075;-96
2021/06/08 05:06:48;;;;;;;52.35;13.65;;;12.90;94.00;;;;;;4966212;28;20069;-93
2021/06/08 05:09:21;;;;;;;20.30;12.63;;;12.90;94.10;;;;;;4976285;28;20042;-96
2021/06/08 05:12:09;;;;;;;31.00;13.80;;;12.90;94.30;;;;;;4941749;28;20107;-94
2021/06/08 05:14:37;;;;;;;25.00;14.55;;;12.80;94.30;;;;;;4935593;28;20089;-94
2021/06/08 05:17:09;;;;;;;29.80;13.52;;;12.90;94.30;;;;;;4942858;29;20047;-93
2021/06/08 05:19:40;;;;;;;42.45;13.82;;;12.90;94.40;;;;;;4938302;29;20039;-93
2021/06/08 05:22:08;;;;;;;27.42;15.13;;;12.80;94.30;;;;;;4954881;29;20550;-93
2021/06/08 05:24:56;;;;;;;28.85;18.15;;;12.80;94.40;;;;;;4964347;28;20145;-93
2021/06/08 05:27:44;;;;;;;40.22;14.40;;;12.80;94.60;;;;;;4961254;28;20121;-92
2021/06/08 05:30:12;;;;;;;18.60;13.13;;;12.90;94.60;;;;;;4974930;28;20046;-92
2021/06/08 05:32:44;;;;;;;15.63;12.90;;;12.90;94.60;;;;;;4957247;28;20039;-93
2021/06/08 05:35:13;;;;;;;13.57;11.45;;;;;;;;;;4973719;28;20510;-95
2021/06/08 05:37:42;;;;;;;14.05;11.60;;;;;;;;;;4976339;28;20043;-93
2021/06/08 05:40:10;;;;;;;14.32;11.77;;;;;;;;;;4974025;28;20055;-92
2021/06/08 05:42:36;;;;;;;21.33;13.55;;;;;;;;;;4957258;28;20035;-92
2021/06/08 05:45:04;;;;;;;18.73;13.25;;;;;;;;;;4957649;28;20051;-93
2021/06/08 05:47:53;;;;;;;22.35;13.60;;;;;;;;;;4947371;28;20047;-94
2021/06/08 05:50:24;;;;;;;19.38;13.32;;;;;;;;;;4975083;28;20046;-93
2021/06/08 05:52:54;;;;;;;17.38;12.93;;;;;;;;;;4958805;28;20073;-93
2021/06/08 05:55:25;;;;;;;14.65;12.45;;;;;;;;;;4964165;28;20112;-93
2021/06/08 05:58:12;;;;;;;13.98;11.80;;;;;;;;;;4946801;29;20102;-94
2021/06/08 06:00:40;;;;;;;16.55;12.60;;;;;;;;;;4958596;28;20039;-95
2021/06/08 06:03:07;;;;;;;18.35;13.00;;;;;;;;;;4958140;28;20081;-92
2021/06/08 06:05:46;;;;;;;23.02;13.45;;;;;;;;;;4959038;29;20114;-94
2021/06/08 06:08:14;;;;;;;16.30;12.65;;;;;;;;;;4959078;28;20404;-94
2021/06/08 06:10:40;;;;;;;15.55;12.57;;;;;;;;;;4960175;28;20054;-93
2021/06/08 06:13:09;;;;;;;13.10;11.13;;;;;;;;;;4960472;28;20039;-94
2021/06/08 06:15:37;;;;;;;14.45;11.45;;;;;;;;;;4959851;28;20047;-93
2021/06/08 06:18:04;;;;;;;15.27;12.45;;;;;;;;;;4958186;28;20047;-94
2021/06/08 06:20:51;;;;;;;15.60;11.48;;;;;;;;;;4957778;29;20484;-94
2021/06/08 06:23:19;;;;;;;13.70;12.20;;;;;;;;;;4957274;28;20067;-93
2021/06/08 06:25:57;;;;;;;15.25;12.15;;;;;;;;;;4958676;29;20534;-94
2021/06/08 06:28:44;;;;;;;13.20;11.35;;;;;;;;;;4944234;29;20105;-93
2021/06/08 06:31:17;;;;;;;12.48;10.80;;;14.80;91.90;;;;;;4944230;29;20090;-94
2021/06/08 06:33:50;;;;;;;11.85;10.43;;;14.80;92.40;;;;;;4959490;28;20047;-93
2021/06/08 06:36:23;;;;;;;13.30;11.20;;;14.90;92.10;;;;;;4941018;29;20051;-93
2021/06/08 06:38:54;;;;;;;13.60;11.43;;;14.90;92.00;;;;;;4958496;28;20043;-94
2021/06/08 06:41:22;;;;;;;13.35;11.35;;;15.00;91.90;;;;;;4941113;29;20510;-93
2021/06/08 06:43:53;;;;;;;12.75;11.20;;;15.10;91.80;;;;;;4946946;28;20046;-94
2021/06/08 06:46:21;;;;;;;13.50;11.88;;;15.20;91.60;;;;;;4967224;28;20042;-94
2021/06/08 06:48:52;;;;;;;11.55;10.35;;;15.30;91.50;;;;;;4941240;29;20050;-92
2021/06/08 06:51:18;;;;;;;10.98;9.85;;;15.40;91.20;;;;;;4925337;29;20213;-93
2021/06/08 06:53:48;;;;;;;11.30;9.80;;;15.50;90.90;;;;;;4940997;29;20165;-94
2021/06/08 06:56:17;;;;;;;11.90;10.70;;;15.60;90.60;;;;;;4957850;29;20047;-94
2021/06/08 06:58:45;;;;;;;12.25;11.00;;;15.60;90.50;;;;;;4953639;28;20454;-96
2021/06/08 07:01:13;;;;;;;11.98;10.75;;;15.70;90.40;;;;;;4960286;28;20042;-93
2021/06/08 07:03:42;;;;;;;12.27;10.95;;;15.60;90.30;;;;;;4976035;28;20050;-94
2021/06/08 07:06:14;;;;;;;13.13;10.93;;;15.70;90.20;;;;;;4976090;28;20043;-94
2021/06/08 07:08:41;;;;;;;11.82;10.63;;;15.90;90.10;;;;;;4977293;28;20067;-94
2021/06/08 07:11:12;;;;;;;12.10;10.90;;;16.00;90.00;;;;;;4959787;28;20051;-94
2021/06/08 07:13:45;;;;;;;12.70;11.20;;;16.10;89.70;;;;;;4975603;28;20490;-95
2021/06/08 07:16:18;;;;;;;14.25;12.10;;;16.20;89.40;;;;;;4960045;28;20038;-94
2021/06/08 07:18:48;;;;;;;15.02;12.80;;;16.10;88.40;;;;;;4959837;28;20054;-95
2021/06/08 07:21:22;;;;;;;13.52;12.13;;;16.10;88.50;;;;;;4959813;28;20042;-95
2021/06/08 07:23:57;;;;;;;14.10;12.57;;;16.10;88.70;;;;;;4960339;28;20053;-95
2021/06/08 07:26:28;;;;;;;12.88;11.48;;;16.20;88.30;;;;;;4976188;28;20047;-94
2021/06/08 07:29:10;;;;;;;12.60;11.30;;;16.50;88.30;;;;;;4959487;28;20061;-94
2021/06/08 07:31:52;;;;;;;13.35;11.95;;;16.70;88.30;;;;;;4958987;28;20229;-94
2021/06/08 07:34:49;;;;;;;12.70;11.40;;;16.90;87.50;;;;;;4947911;29;20043;-95
2021/06/08 07:37:22;;;;;;;13.32;11.35;;;17.20;86.50;;;;;;4924782;29;20069;-95
2021/06/08 07:40:05;;;;;;;13.02;11.60;;;17.30;85.90;;;;;;4957647;29;20073;-95
2021/06/08 07:42:45;;;;;;;12.98;11.68;;;17.40;85.10;;;;;;4941111;29;20047;-94
2021/06/08 07:45:18;;;;;;;13.82;11.95;;;17.20;85.20;;;;;;4940382;29;20118;-95
2021/06/08 07:48:02;;;;;;;13.10;11.68;;;17.40;85.70;;;;;;4942606;29;20373;-94
2021/06/08 07:50:38;;;;;;;13.95;12.48;;;17.40;85.60;;;;;;4941507;29;20118;-96
2021/06/08 07:53:13;;;;;;;15.38;12.52;;;17.40;85.20;;;;;;4960496;28;20035;-95
2021/06/08 07:55:43;;;;;;;15.10;13.32;;;17.30;85.40;;;;;;4975613;28;20212;-95
2021/06/08 07:58:13;;;;;;;15.00;13.40;;;17.30;84.60;;;;;;4952681;29;20415;-95
2021/06/08 08:00:42;;;;;;;13.68;12.27;;;17.10;86.00;;;;;;4956687;29;20044;-96
2021/06/08 08:03:33;;;;;;;14.75;12.70;;;17.20;86.70;;;;;;4941650;29;20047;-94
2021/06/08 08:06:08;;;;;;;14.95;13.38;;;17.20;85.50;;;;;;4939694;29;20048;-95
2021/06/08 08:08:48;;;;;;;15.25;13.02;;;17.40;85.40;;;;;;4941600;29;20054;-93
2021/06/08 08:11:24;;;;;;;16.00;13.55;;;17.40;85.30;;;;;;4924295;29;20090;-95
2021/06/08 08:14:12;;;;;;;14.10;12.48;;;17.70;85.30;;;;;;4942182;29;20043;-94
2021/06/08 08:17:00;;;;;;;14.25;12.73;;;18.00;84.40;;;;;;4948649;28;20071;-94
2021/06/08 08:19:46;;;;;;;14.90;13.07;;;18.30;83.10;;;;;;4947925;28;20043;-93
2021/06/08 08:22:33;;;;;;;14.73;13.13;;;18.60;82.50;;;;;;4947835;28;20150;-93
2021/06/08 08:25:18;;;;;;;15.48;13.75;;;18.80;81.70;;;;;;4947508;28;20105;-92
2021/06/08 08:28:06;;;;;;;16.40;13.82;;;19.00;80.90;;;;;;4960807;28;20059;-93
2021/06/08 08:30:42;;;;;;;15.18;13.55;;;18.80;79.40;;;;;;4959292;28;20049;-93
2021/06/08 08:33:24;;;;;;;15.60;13.60;;;19.30;79.40;;;;;;4958267;28;20055;-93
2021/06/08 08:35:51;;;;;;;15.32;13.70;;;19.30;78.90;;;;;;4975831;28;20043;-93
2021/06/08 08:38:23;;;;;;;15.68;14.05;;;19.40;77.50;;;;;;4957887;28;20080;-93
2021/06/08 08:40:50;;;;;;;16.27;14.48;;;19.40;78.10;;;;;;4958300;28;20046;-94
2021/06/08 08:43:18;;;;;;;17.15;15.23;;;19.60;79.00;;;;;;4951949;29;20045;-93
2021/06/08 08:46:02;;;;;;;16.08;13.93;;;19.80;77.70;;;;;;4941475;28;20126;-93
2021/06/08 08:48:33;;;;;;;16.90;14.60;;;20.00;76.80;;;;;;4939833;29;20463;-94
2021/06/08 08:51:05;;;;;;;18.20;16.08;;;20.10;74.70;;;;;;4955790;29;20463;-93
2021/06/08 08:53:40;;;;;;;18.80;16.75;;;20.30;76.00;;;;;;4955154;29;20099;-95
2021/06/08 08:56:10;;;;;;;16.52;14.68;;;20.40;76.00;;;;;;4939067;29;20130;-93
2021/06/08 08:58:45;;;;;;;17.45;15.48;;;;;;;;;;4955640;29;20055;-95
2021/06/08 09:01:23;;;;;;;17.70;15.80;;;20.80;73.60;;;;;;4941357;29;20050;-95
2021/06/08 09:03:51;;;;;;;19.73;17.38;;;;;;;;;;4938524;29;20059;-94
2021/06/08 09:06:23;;;;;;;19.58;17.33;;;21.10;73.60;;;;;;4955841;29;20163;-95
2021/06/08 09:08:49;;;;;;;18.55;16.55;;;21.30;73.30;;;;;;4955788;28;20043;-94
2021/06/08 09:11:19;;;;;;;19.42;17.08;;;21.50;72.80;;;;;;4938868;29;20047;-95
2021/06/08 09:13:48;;;;;;;19.30;17.20;;;21.70;72.70;;;;;;4949181;28;20407;-93
2021/06/08 09:16:15;;;;;;;20.55;17.77;;;21.80;72.10;;;;;;4957029;28;20047;-93
2021/06/08 09:18:49;;;;;;;;;;;21.90;71.90;;;;;;4969441;28;20047;-94
2021/06/08 09:21:23;;;;;;;20.00;17.00;;;22.10;70.70;;;;;;4923104;29;20282;-95
2021/06/08 09:23:50;;;;;;;18.15;16.15;;;22.30;68.80;;;;;;4938421;29;20047;-93
2021/06/08 09:26:20;;;;;;;19.90;17.77;;;22.30;69.20;;;;;;4938316;29;20067;-94
2021/06/08 09:28:54;;;;;;;18.10;16.20;;;22.50;67.50;;;;;;4924587;28;20054;-93
2021/06/08 09:31:25;;;;;;;17.63;15.38;;;22.50;67.80;;;;;;4937458;29;20480;-94
2021/06/08 09:33:57;;;;;;;18.25;16.23;;;22.80;67.10;;;;;;4955173;29;20050;-95
2021/06/08 09:36:29;;;;;;;17.98;15.75;;;23.00;63.70;;;;;;4922386;29;20142;-95
2021/06/08 09:39:05;;;;;;;20.30;16.58;;;22.70;63.50;;;;;;4955359;29;20106;-94
2021/06/08 09:41:41;;;;;;;16.35;14.52;;;22.90;62.20;;;;;;4937823;29;20043;-95
2021/06/08 09:44:11;;;;;;;17.13;13.93;;;22.90;63.00;;;;;;4922414;29;20334;-92
2021/06/08 09:46:50;;;;;;;16.65;14.85;;;23.20;62.90;;;;;;4937999;29;20039;-90
2021/06/08 09:49:30;;;;;;;15.93;14.13;;;23.20;61.80;;;;;;4923086;29;20379;-92
2021/06/08 09:51:59;;;;;;;16.60;13.80;;;;;;;;;;4937608;29;20051;-92
2021/06/08 09:54:35;;;;;;;13.90;12.43;;;;;;;;;;4937888;29;20143;-93
2021/06/08 09:57:14;;;;;;;13.02;10.75;;;;;;;;;;4954851;28;20098;-93
2021/06/08 09:59:44;;;;;;;14.02;12.50;;;;;;;;;;4955919;28;20084;-90
2021/06/08 10:02:24;;;;;;;12.60;11.07;;;;;;;;;;4955688;28;20035;-93
2021/06/08 10:05:00;;;;;;;12.23;9.85;;;;;;;;;;4938310;29;20047;-92
2021/06/08 10:07:32;;;;;;;11.00;9.90;;;;;;;;;;4938513;29;20114;-91
2021/06/08 10:10:07;;;;;;;10.85;9.00;;;;;;;;;;4938146;29;20500;-92
2021/06/08 10:12:38;;;;;;;11.48;10.27;;;;;;;;;;4921727;29;20063;-92
2021/06/08 10:15:05;;;;;;;11.35;9.93;;;;;;;;;;4937949;29;20047;-92
2021/06/08 10:17:34;;;;;;;11.07;9.48;;;;;;;;;;4937703;29;20048;-93
2021/06/08 10:20:23;;;;;;;11.13;9.93;;;;;;;;;;4922283;29;20416;-93
2021/06/08 10:22:51;;;;;;;11.02;9.60;;;;;;;;;;4922388;29;20174;-92
2021/06/08 10:25:20;;;;;;;8.90;8.00;;;;;;;;;;4955147;28;20373;-93
2021/06/08 10:27:48;;;;;;;11.60;9.07;;;;;;;;;;4954669;28;20054;-90
2021/06/08 10:30:15;;;;;;;10.70;9.32;;;;;;;;;;4938141;29;20110;-91
2021/06/08 10:32:48;;;;;;;11.75;10.10;;;;;;;;;;4922106;29;20047;-93
2021/06/08 10:35:16;;;;;;;12.80;10.05;;;;;;;;;;4938464;29;20134;-94
2021/06/08 10:37:59;;;;;;;10.77;9.63;;;;;;;;;;4924598;29;20051;-92
2021/06/08 10:40:26;;;;;;;11.02;9.75;;;;;;;;;;4937883;28;20039;-92
2021/06/08 10:42:56;;;;;;;11.65;10.45;;;;;;;;;;4968679;28;20057;-91
2021/06/08 10:45:32;;;;;;;12.13;10.77;;;;;;;;;;4961511;28;20483;-94
2021/06/08 10:48:08;;;;;;;12.98;11.68;;;;;;;;;;4960569;28;20070;-93
2021/06/08 10:50:40;;;;;;;13.02;11.48;;;;;;;;;;4944579;28;20057;-93
2021/06/08 10:53:32;;;;;;;13.93;12.45;;;;;;;;;;4977838;28;20129;-92
2021/06/08 10:55:59;;;;;;;15.30;12.13;;;;;;;;;;4960806;28;20467;-94
2021/06/08 10:58:51;;;;;;;13.68;12.27;;;24.80;51.50;;;;;;4936243;29;20057;-92
2021/06/08 11:01:44;;;;;;;14.40;12.88;;;24.70;51.80;;;;;;4941690;28;20043;-92
2021/06/08 11:04:12;;;;;;;13.75;12.35;;;24.70;52.50;;;;;;4943581;28;20062;-94
2021/06/08 11:06:53;;;;;;;16.90;12.18;;;24.70;54.50;;;;;;4960067;28;20054;-93
2021/06/08 11:09:23;;;;;;;13.90;12.40;;;24.90;54.20;;;;;;4958849;28;20174;-92
2021/06/08 11:11:52;;;;;;;13.73;12.30;;;25.00;53.20;;;;;;4950995;28;20049;-92
2021/06/08 11:14:38;;;;;;;13.70;12.15;;;25.20;52.60;;;;;;4945421;28;20503;-93
2021/06/08 11:17:11;;;;;;;12.38;11.18;;;25.20;52.50;;;;;;4963190;28;20038;-93
2021/06/08 11:19:58;;;;;;;15.70;11.32;;;25.10;52.00;;;;;;4960665;28;20374;-92
2021/06/08 11:22:47;;;;;;;13.50;12.20;;;25.10;52.80;;;;;;4964206;28;20054;-92
2021/06/08 11:25:38;;;;;;;11.52;10.32;;;25.10;52.60;;;;;;4932473;29;20065;-93
2021/06/08 11:28:17;;;;;;;11.98;10.70;;;25.20;54.30;;;;;;4940945;29;20498;-92
2021/06/08 11:30:58;;;;;;;12.93;11.13;;;25.60;52.80;;;;;;4950063;28;20047;-93
2021/06/08 11:33:34;;;;;;;12.55;10.50;;;25.50;50.50;;;;;;4959277;28;20415;-93
2021/06/08 11:36:22;;;;;;;10.45;9.40;;;25.40;51.30;;;;;;4960109;28;20070;-92
2021/06/08 11:39:21;;;;;;;10.50;9.50;;;25.50;51.10;;;;;;4975474;28;20411;-86
2021/06/08 11:42:07;;;;;;;11.27;10.18;;;25.40;51.20;;;;;;4975353;28;20137;-93
2021/06/08 11:44:34;;;;;;;8.27;6.97;;;25.40;50.70;;;;;;4976659;28;20104;-93
2021/06/08 11:47:13;;;;;;;7.15;6.15;;;25.50;51.60;;;;;;4959710;28;20049;-93
2021/06/08 11:50:00;;;;;;;7.55;6.68;;;25.80;50.80;;;;;;4944303;28;20579;-93
2021/06/08 11:52:26;;;;;;;8.40;6.85;;;25.90;49.60;;;;;;4958677;28;20043;-93
2021/06/08 11:54:55;;;;;;;8.43;7.03;;;25.90;48.90;;;;;;4975868;28;20081;-93
2021/06/08 11:57:35;;;;;;;6.47;5.47;;;25.80;49.90;;;;;;4959499;28;20041;-95
2021/06/08 12:00:05;;;;;;;6.30;4.80;;;26.10;49.60;;;;;;4957824;29;20050;-94
2021/06/08 12:02:41;;;;;;;5.80;4.90;;;26.40;50.80;;;;;;4956017;29;20062;-95
2021/06/08 12:05:23;;;;;;;5.93;5.32;;;27.00;47.80;;;;;;4947286;28;20094;-95
2021/06/08 12:07:49;;;;;;;7.85;5.10;;;27.00;44.80;;;;;;4976482;28;20034;-94
2021/06/08 12:10:29;;;;;;;7.18;5.97;;;26.80;45.40;;;;;;4966921;28;20043;-95
2021/06/08 12:12:55;;;;;;;8.93;6.72;;;26.80;44.80;;;;;;4939648;29;20074;-95
2021/06/08 12:15:23;;;;;;;10.40;5.55;;;26.70;45.90;;;;;;4957229;28;20316;-95
2021/06/08 12:17:59;;;;;;;6.53;5.82;;;26.60;46.50;;;;;;4957184;28;20046;-94
2021/06/08 12:20:26;;;;;;;5.55;4.95;;;26.70;46.40;;;;;;4942709;28;20047;-95
2021/06/08 12:22:53;;;;;;;5.68;5.00;;;26.60;45.00;;;;;;4975682;28;20125;-95
2021/06/08 12:25:19;;;;;;;7.80;5.50;;;26.60;48.30;;;;;;4959207;28;20101;-95
2021/06/08 12:27:47;;;;;;;7.72;6.38;;;26.70;47.80;;;;;;4977003;28;20109;-96
2021/06/08 12:30:34;;;;;;;7.07;5.90;;;26.70;46.70;;;;;;4960387;28;20039;-94
2021/06/08 12:33:06;;;;;;;6.38;5.25;;;26.50;46.90;;;;;;4976926;28;20039;-95
2021/06/08 12:35:42;;;;;;;6.00;5.45;;;26.70;47.90;;;;;;4959756;28;20514;-94
2021/06/08 12:38:25;;;;;;;5.70;5.20;;;26.90;46.60;;;;;;4960773;28;20038;-94
2021/06/08 12:41:29;;;;;;;5.68;5.00;;;26.90;45.70;;;;;;4952190;29;20035;-96
2021/06/08 12:43:58;;;;;;;5.82;5.22;;;26.90;43.20;;;;;;4879026;28;20048;-94
2021/06/08 12:46:24;;;;;;;5.90;4.80;;;26.80;45.60;;;;;;4939420;29;20035;-91
2021/06/08 12:49:07;;;;;;;6.55;5.60;;;26.90;47.20;;;;;;4954952;29;20387;-92
2021/06/08 12:51:35;;;;;;;6.57;5.15;;;26.90;48.20;;;;;;4955862;28;20090;-93
2021/06/08 12:54:25;;;;;;;6.85;4.97;;;27.20;46.90;;;;;;4955963;29;20038;-94
2021/06/08 12:56:53;;;;;;;6.07;5.43;;;27.30;47.90;;;;;;4955601;29;20043;-95
2021/06/08 12:59:43;;;;;;;7.25;5.25;;;27.90;47.60;;;;;;4971365;28;20043;-93
2021/06/08 13:02:15;;;;;;;6.70;5.80;;;28.30;46.60;;;;;;4958603;28;20084;-95
2021/06/08 13:04:49;;;;;;;5.45;4.95;;;28.30;46.10;;;;;;4969431;28;20043;-91
2021/06/08 13:07:23;;;;;;;5.20;4.72;;;28.60;46.00;;;;;;4966805;28;20437;-93
2021/06/08 13:10:06;;;;;;;5.10;4.68;;;29.10;44.40;;;;;;4956327;29;20099;-92
2021/06/08 13:12:53;;;;;;;5.00;4.50;;;29.60;42.60;;;;;;4948191;29;20090;-92
2021/06/08 13:16:01;;;;;;;5.90;5.30;;;29.30;42.40;;;;;;4939580;28;20058;-94
2021/06/08 13:18:45;;;;;;;5.20;4.70;;;28.90;42.70;;;;;;4947497;28;20046;-93